createdAt,value
2019-02-17T00:00:30.603Z,1.40
2019-02-17T00:02:59.165Z,1.50
2019-02-17T00:05:27.709Z,1.40
2019-02-17T00:07:56.274Z,1.40
2019-02-17T00:10:24.742Z,1.30
2019-02-17T00:12:53.314Z,1.20
2019-02-17T00:15:21.852Z,1.10
2019-02-17T00:17:50.402Z,1.10
2019-02-17T00:20:19.055Z,1.00
2019-02-17T00:22:47.585Z,1.30
2019-02-17T00:25:16.158Z,1.20
2019-02-17T00:27:44.694Z,1.10
2019-02-17T00:30:13.406Z,1.00
2019-02-17T00:32:41.942Z,0.90
2019-02-17T00:35:10.517Z,0.80
2019-02-17T00:37:39.071Z,0.80
2019-02-17T00:40:08.566Z,0.80
2019-02-17T00:42:37.482Z,0.80
2019-02-17T00:45:08.028Z,0.80
2019-02-17T00:47:36.547Z,0.70
2019-02-17T00:50:08.358Z,0.70
2019-02-17T00:52:36.898Z,0.80
2019-02-17T00:55:06.903Z,1.00
2019-02-17T00:57:35.445Z,1.00
2019-02-17T01:00:06.814Z,0.90
2019-02-17T01:02:35.318Z,0.80
2019-02-17T01:05:04.430Z,0.90
2019-02-17T01:07:32.970Z,0.90
2019-02-17T01:10:01.540Z,1.10
2019-02-17T01:12:30.412Z,1.10
2019-02-17T01:14:58.982Z,1.20
2019-02-17T01:17:27.523Z,0.90
2019-02-17T01:19:56.071Z,0.70
2019-02-17T01:22:24.939Z,0.50
2019-02-17T01:24:53.490Z,0.40
2019-02-17T01:27:22.406Z,0.40
2019-02-17T01:29:50.876Z,0.40
2019-02-17T01:32:19.438Z,0.40
2019-02-17T01:34:47.910Z,0.40
2019-02-17T01:37:16.466Z,0.60
2019-02-17T01:39:48.089Z,0.70
2019-02-17T01:42:16.997Z,0.60
2019-02-17T01:44:45.614Z,0.50
2019-02-17T01:47:14.182Z,0.60
2019-02-17T01:49:42.800Z,0.80
2019-02-17T01:52:11.361Z,0.80
2019-02-17T01:54:39.835Z,0.70
2019-02-17T01:57:08.411Z,0.60
2019-02-17T01:59:36.958Z,0.50
2019-02-17T02:02:05.524Z,0.60
2019-02-17T02:04:34.072Z,0.40
2019-02-17T02:07:02.646Z,0.40
2019-02-17T02:09:31.195Z,0.30
2019-02-17T02:11:59.741Z,0.30
2019-02-17T02:14:28.297Z,0.40
2019-02-17T02:16:56.768Z,0.50
2019-02-17T02:19:25.342Z,0.30
2019-02-17T02:21:53.895Z,0.20
2019-02-17T02:24:22.462Z,0.20
2019-02-17T02:26:51.015Z,0.40
2019-02-17T02:29:19.583Z,0.40
2019-02-17T02:31:48.131Z,0.20
2019-02-17T02:34:16.708Z,0.10
2019-02-17T02:36:45.251Z,0.20
2019-02-17T02:39:13.829Z,0.10
2019-02-17T02:41:42.360Z,0.10
2019-02-17T02:44:11.276Z,0.10
2019-02-17T02:46:39.822Z,0.10
2019-02-17T02:49:08.406Z,0.30
2019-02-17T02:51:36.950Z,0.20
2019-02-17T02:54:05.514Z,0.30
2019-02-17T02:56:33.978Z,0.30
2019-02-17T02:59:02.555Z,0.50
2019-02-17T03:01:31.098Z,0.40
2019-02-17T03:03:59.640Z,0.60
2019-02-17T03:06:35.378Z,0.50
2019-02-17T03:09:04.684Z,0.30
2019-02-17T03:11:33.271Z,0.20
2019-02-17T03:14:01.774Z,0.10
2019-02-17T03:16:30.322Z,0.20
2019-02-17T03:18:58.931Z,0.20
2019-02-17T03:21:27.503Z,0.10
2019-02-17T03:23:56.357Z,0.10
2019-02-17T03:26:24.998Z,0.00
2019-02-17T03:28:53.543Z,0.10
2019-02-17T03:31:22.114Z,0.10
2019-02-17T03:33:50.667Z,0.10
2019-02-17T03:36:19.241Z,0.00
2019-02-17T03:38:48.148Z,-0.10
2019-02-17T03:41:16.725Z,0.00
2019-02-17T03:43:45.270Z,0.10
2019-02-17T03:46:13.850Z,0.00
2019-02-17T03:48:42.398Z,0.00
2019-02-17T03:51:10.974Z,-0.10
2019-02-17T03:53:39.454Z,-0.10
2019-02-17T03:56:08.899Z,-0.20
2019-02-17T03:58:37.483Z,-0.20
2019-02-17T04:01:06.043Z,-0.20
2019-02-17T04:03:34.619Z,-0.10
2019-02-17T04:06:03.245Z,-0.20
2019-02-17T04:08:31.822Z,-0.50
2019-02-17T04:11:00.304Z,-0.40
2019-02-17T04:13:28.960Z,-0.40
2019-02-17T04:15:57.503Z,-0.30
2019-02-17T04:18:26.075Z,-0.20
2019-02-17T04:20:54.632Z,-0.10
2019-02-17T04:23:31.012Z,-0.20
2019-02-17T04:25:54.989Z,-0.30
2019-02-17T04:28:23.566Z,-0.30
2019-02-17T04:30:52.198Z,-0.40
2019-02-17T04:33:20.771Z,-0.40
2019-02-17T04:35:49.324Z,-0.30
2019-02-17T04:38:17.895Z,-0.40
2019-02-17T04:40:46.444Z,-0.30
2019-02-17T04:43:15.022Z,-0.30
2019-02-17T04:45:43.499Z,-0.30
2019-02-17T04:48:12.088Z,-0.30
2019-02-17T04:50:40.650Z,-0.30
2019-02-17T04:53:09.224Z,-0.20
2019-02-17T04:55:37.775Z,-0.30
2019-02-17T04:58:06.350Z,-0.30
2019-02-17T05:00:40.348Z,-0.20
2019-02-17T05:03:05.269Z,-0.20
2019-02-17T05:05:33.821Z,-0.30
2019-02-17T05:08:02.367Z,-0.40
2019-02-17T05:10:31.014Z,-0.40
2019-02-17T05:12:59.571Z,-0.50
2019-02-17T05:15:28.146Z,-0.50
2019-02-17T05:17:56.697Z,-0.40
2019-02-17T05:20:25.276Z,-0.50
2019-02-17T05:22:53.832Z,-0.50
2019-02-17T05:25:22.406Z,-0.50
2019-02-17T05:27:50.886Z,-0.50
2019-02-17T05:30:19.468Z,-0.50
2019-02-17T05:32:48.043Z,-0.60
2019-02-17T05:35:16.594Z,-0.50
2019-02-17T05:37:45.143Z,-0.70
2019-02-17T05:40:13.790Z,-0.60
2019-02-17T05:42:42.342Z,-0.60
2019-02-17T05:45:10.991Z,-0.70
2019-02-17T05:47:39.618Z,-0.60
2019-02-17T05:50:08.635Z,-0.60
2019-02-17T05:52:37.193Z,-0.60
2019-02-17T05:55:06.600Z,-0.50
2019-02-17T05:57:35.253Z,-0.70
2019-02-17T06:00:05.352Z,-0.70
2019-02-17T06:02:33.910Z,-0.60
2019-02-17T06:05:02.495Z,-0.50
2019-02-17T06:07:31.044Z,-0.50
2019-02-17T06:09:59.983Z,-0.60
2019-02-17T06:12:28.532Z,-0.70
2019-02-17T06:14:57.112Z,-0.70
2019-02-17T06:17:25.676Z,-0.70
2019-02-17T06:19:54.223Z,-0.70
2019-02-17T06:22:22.807Z,-0.60
2019-02-17T06:24:51.352Z,-0.80
2019-02-17T06:27:19.914Z,-0.70
2019-02-17T06:29:49.195Z,-0.80
2019-02-17T06:32:17.850Z,-0.90
2019-02-17T06:34:46.405Z,-0.90
2019-02-17T06:37:15.075Z,-0.90
2019-02-17T06:39:43.626Z,-0.90
2019-02-17T06:42:12.199Z,-0.90
2019-02-17T06:44:40.751Z,-0.90
2019-02-17T06:47:11.259Z,-1.00
2019-02-17T06:49:40.143Z,-0.80
2019-02-17T06:52:08.897Z,-0.80
2019-02-17T06:54:37.442Z,-0.70
2019-02-17T06:57:07.587Z,-0.60
2019-02-17T06:59:36.139Z,-0.60
2019-02-17T07:02:04.782Z,-0.70
2019-02-17T07:04:43.512Z,-0.70
2019-02-17T07:07:12.098Z,-0.70
2019-02-17T07:09:41.108Z,-0.60
2019-02-17T07:12:09.756Z,-0.50
2019-02-17T07:14:38.490Z,-0.40
2019-02-17T07:17:07.103Z,-0.30
2019-02-17T07:19:35.699Z,-0.30
2019-02-17T07:22:04.252Z,-0.20
2019-02-17T07:24:32.837Z,0.20
2019-02-17T07:27:01.386Z,0.10
2019-02-17T07:29:29.970Z,0.00
2019-02-17T07:31:58.524Z,-0.10
2019-02-17T07:34:27.134Z,0.00
2019-02-17T07:36:55.702Z,0.20
2019-02-17T07:39:24.322Z,0.30
2019-02-17T07:41:52.903Z,0.30
2019-02-17T07:44:21.494Z,0.20
2019-02-17T07:46:50.038Z,0.10
2019-02-17T07:49:18.631Z,0.10
2019-02-17T07:51:47.181Z,0.10
2019-02-17T07:54:15.760Z,0.10
2019-02-17T07:56:44.307Z,0.30
2019-02-17T07:59:12.899Z,0.40
2019-02-17T08:01:45.389Z,0.60
2019-02-17T08:04:11.676Z,0.80
2019-02-17T08:06:40.228Z,1.00
2019-02-17T08:09:08.822Z,1.20
2019-02-17T08:11:37.408Z,1.50
2019-02-17T08:14:06.029Z,1.60
2019-02-17T08:16:34.610Z,1.70
2019-02-17T08:19:03.211Z,1.60
2019-02-17T08:21:31.751Z,1.60
2019-02-17T08:24:00.343Z,1.70
2019-02-17T08:26:28.918Z,1.80
2019-02-17T08:28:57.512Z,2.00
2019-02-17T08:31:26.166Z,2.10
2019-02-17T08:33:55.739Z,2.20
2019-02-17T08:36:24.281Z,2.40
2019-02-17T08:38:52.817Z,2.50
2019-02-17T08:41:21.407Z,2.70
2019-02-17T08:43:49.946Z,2.90
2019-02-17T08:46:18.525Z,3.00
2019-02-17T08:48:47.074Z,3.20
2019-02-17T08:51:15.680Z,3.50
2019-02-17T08:53:44.204Z,3.60
2019-02-17T08:56:12.786Z,3.80
2019-02-17T08:58:41.323Z,3.90
2019-02-17T09:01:09.907Z,4.20
2019-02-17T09:03:38.449Z,4.40
2019-02-17T09:06:06.960Z,4.70
2019-02-17T09:08:35.512Z,4.60
2019-02-17T09:11:05.130Z,4.90
2019-02-17T09:13:33.670Z,5.20
2019-02-17T09:16:02.255Z,5.30
2019-02-17T09:18:30.807Z,5.30
2019-02-17T09:20:59.402Z,5.50
2019-02-17T09:23:27.943Z,5.60
2019-02-17T09:25:56.557Z,5.60
2019-02-17T09:28:25.073Z,5.60
2019-02-17T09:30:53.618Z,5.60
2019-02-17T09:33:22.208Z,5.50
2019-02-17T09:35:50.786Z,5.50
2019-02-17T09:38:19.371Z,5.70
2019-02-17T09:40:48.122Z,5.90
2019-02-17T09:43:16.786Z,6.00
2019-02-17T09:45:45.372Z,6.20
2019-02-17T09:48:13.909Z,6.30
2019-02-17T09:50:42.415Z,6.30
2019-02-17T09:53:10.958Z,6.50
2019-02-17T09:55:39.551Z,6.70
2019-02-17T09:58:08.131Z,6.70
2019-02-17T10:00:36.718Z,6.80
2019-02-17T10:03:05.302Z,6.70
2019-02-17T10:05:33.847Z,6.80
2019-02-17T10:08:02.431Z,6.80
2019-02-17T10:10:30.974Z,7.00
2019-02-17T10:13:01.284Z,7.20
2019-02-17T10:15:29.812Z,7.40
2019-02-17T10:17:58.354Z,7.60
2019-02-17T10:20:26.963Z,8.00
2019-02-17T10:22:55.479Z,8.30
2019-02-17T10:25:24.026Z,8.20
2019-02-17T10:27:52.685Z,8.40
2019-02-17T10:30:21.222Z,8.60
2019-02-17T10:32:50.159Z,8.80
2019-02-17T10:35:18.686Z,8.90
2019-02-17T10:37:47.228Z,8.90
2019-02-17T10:40:20.270Z,9.20
2019-02-17T10:42:48.883Z,9.50
2019-02-17T10:45:17.766Z,9.40
2019-02-17T10:47:46.446Z,9.70
2019-02-17T10:50:15.063Z,9.90
2019-02-17T10:52:43.651Z,10.20
2019-02-17T10:55:13.344Z,10.30
2019-02-17T10:57:41.935Z,10.60
2019-02-17T11:00:14.011Z,10.70
2019-02-17T11:02:47.037Z,10.80
2019-02-17T11:05:12.863Z,11.00
2019-02-17T11:07:41.452Z,11.20
2019-02-17T11:10:11.641Z,11.40
2019-02-17T11:12:40.252Z,11.40
2019-02-17T11:15:17.447Z,11.80
2019-02-17T11:17:46.030Z,11.70
2019-02-17T11:20:14.991Z,11.90
2019-02-17T11:22:43.579Z,11.90
2019-02-17T11:25:12.165Z,11.90
2019-02-17T11:27:40.706Z,11.60
2019-02-17T11:30:17.269Z,11.60
2019-02-17T11:32:45.942Z,11.70
2019-02-17T11:35:14.668Z,11.80
2019-02-17T11:37:45.115Z,12.00
2019-02-17T11:40:14.083Z,12.10
2019-02-17T11:42:42.700Z,12.10
2019-02-17T11:45:14.626Z,12.30
2019-02-17T11:47:43.243Z,12.30
2019-02-17T11:50:12.051Z,12.50
2019-02-17T11:52:40.734Z,12.50
2019-02-17T11:55:16.055Z,12.50
2019-02-17T11:57:44.600Z,12.60
2019-02-17T12:00:19.443Z,12.70
2019-02-17T12:02:48.169Z,12.80
2019-02-17T12:05:16.868Z,12.90
2019-02-17T12:07:45.542Z,13.00
2019-02-17T12:10:14.207Z,13.10
2019-02-17T12:12:42.868Z,12.70
2019-02-17T12:15:13.458Z,12.70
2019-02-17T12:17:42.927Z,12.30
2019-02-17T12:20:31.579Z,12.40
2019-02-17T12:23:01.727Z,12.60
2019-02-17T12:25:31.916Z,12.50
2019-02-17T12:28:02.138Z,12.50
2019-02-17T12:30:30.684Z,12.80
2019-02-17T12:32:59.279Z,12.90
2019-02-17T12:35:27.820Z,12.90
2019-02-17T12:37:56.402Z,13.30
2019-02-17T12:40:24.946Z,13.00
2019-02-17T12:42:53.471Z,13.30
2019-02-17T12:45:22.057Z,13.40
2019-02-17T12:47:57.514Z,13.40
2019-02-17T12:50:20.834Z,13.30
2019-02-17T12:52:49.379Z,13.30
2019-02-17T12:55:17.962Z,13.10
2019-02-17T12:57:46.506Z,13.10
2019-02-17T13:00:17.302Z,13.00
2019-02-17T13:02:45.875Z,13.00
2019-02-17T13:05:14.506Z,13.30
2019-02-17T13:07:43.358Z,13.50
2019-02-17T13:10:12.286Z,13.30
2019-02-17T13:12:40.832Z,13.00
2019-02-17T13:15:14.294Z,13.10
2019-02-17T13:17:42.836Z,13.40
2019-02-17T13:20:14.494Z,13.70
2019-02-17T13:22:43.446Z,13.60
2019-02-17T13:25:16.670Z,13.80
2019-02-17T13:27:45.212Z,13.70
2019-02-17T13:30:25.028Z,13.70
2019-02-17T13:32:53.579Z,13.70
2019-02-17T13:35:22.158Z,13.60
2019-02-17T13:37:50.702Z,13.80
2019-02-17T13:40:19.359Z,13.70
2019-02-17T13:42:48.046Z,13.80
2019-02-17T13:45:17.371Z,14.00
2019-02-17T13:47:45.927Z,14.20
2019-02-17T13:50:15.665Z,14.10
2019-02-17T13:52:44.204Z,13.90
2019-02-17T13:55:12.925Z,13.70
2019-02-17T13:57:41.766Z,13.70
2019-02-17T14:00:18.978Z,13.70
2019-02-17T14:02:48.294Z,13.80
2019-02-17T14:05:16.909Z,14.00
2019-02-17T14:07:45.491Z,14.10
2019-02-17T14:10:14.855Z,14.00
2019-02-17T14:12:43.441Z,14.30
2019-02-17T14:15:17.482Z,14.60
2019-02-17T14:17:46.150Z,14.80
2019-02-17T14:20:14.781Z,15.00
2019-02-17T14:22:43.339Z,15.10
2019-02-17T14:25:12.995Z,15.00
2019-02-17T14:27:41.878Z,14.90
2019-02-17T14:30:14.607Z,15.00
2019-02-17T14:32:43.150Z,14.90
2019-02-17T14:35:12.184Z,15.00
2019-02-17T14:37:40.731Z,14.70
2019-02-17T14:40:13.774Z,14.50
2019-02-17T14:42:42.352Z,14.40
2019-02-17T14:45:14.806Z,14.30
2019-02-17T14:47:43.465Z,14.30
2019-02-17T14:50:12.446Z,14.40
2019-02-17T14:52:41.108Z,14.20
2019-02-17T14:55:13.099Z,14.30
2019-02-17T14:57:41.694Z,14.10
2019-02-17T15:00:13.515Z,14.00
2019-02-17T15:02:45.046Z,14.10
2019-02-17T15:05:13.772Z,13.90
2019-02-17T15:07:42.330Z,13.90
2019-02-17T15:10:12.333Z,13.60
2019-02-17T15:12:40.900Z,13.50
2019-02-17T15:15:14.015Z,13.40
2019-02-17T15:17:42.645Z,13.40
2019-02-17T15:20:13.258Z,13.20
2019-02-17T15:22:42.199Z,13.10
2019-02-17T15:25:11.807Z,13.10
2019-02-17T15:27:40.374Z,13.00
2019-02-17T15:30:13.878Z,13.00
2019-02-17T15:32:42.523Z,12.80
2019-02-17T15:35:11.201Z,12.80
2019-02-17T15:37:39.754Z,12.90
2019-02-17T15:40:10.935Z,12.70
2019-02-17T15:42:39.556Z,12.70
2019-02-17T15:45:13.287Z,12.70
2019-02-17T15:47:41.896Z,12.60
2019-02-17T15:50:12.780Z,12.50
2019-02-17T15:52:41.391Z,12.40
2019-02-17T15:55:14.603Z,12.30
2019-02-17T15:57:43.220Z,12.30
2019-02-17T16:00:14.862Z,12.20
2019-02-17T16:02:43.405Z,12.30
2019-02-17T16:05:11.968Z,12.10
2019-02-17T16:07:40.520Z,12.00
2019-02-17T16:10:11.138Z,12.00
2019-02-17T16:12:39.741Z,11.80
2019-02-17T16:15:20.034Z,11.60
2019-02-17T16:17:48.525Z,11.60
2019-02-17T16:20:17.093Z,11.40
2019-02-17T16:22:45.955Z,11.20
2019-02-17T16:25:14.823Z,11.10
2019-02-17T16:27:43.358Z,11.00
2019-02-17T16:30:16.238Z,10.90
2019-02-17T16:32:44.916Z,10.80
2019-02-17T16:35:13.478Z,10.90
2019-02-17T16:37:42.023Z,10.70
2019-02-17T16:40:16.754Z,10.50
2019-02-17T16:42:45.511Z,10.40
2019-02-17T16:45:16.683Z,10.20
2019-02-17T16:47:45.970Z,10.30
2019-02-17T16:50:25.561Z,10.10
2019-02-17T16:52:54.029Z,10.10
2019-02-17T16:55:22.679Z,9.80
2019-02-17T16:57:51.283Z,9.50
2019-02-17T17:00:23.966Z,9.50
2019-02-17T17:02:54.419Z,9.70
2019-02-17T17:05:23.998Z,9.60
2019-02-17T17:07:52.774Z,9.60
2019-02-17T17:10:21.898Z,9.70
2019-02-17T17:12:50.509Z,9.60
2019-02-17T17:15:19.149Z,9.30
2019-02-17T17:17:47.690Z,9.00
2019-02-17T17:20:20.972Z,8.90
2019-02-17T17:22:49.510Z,8.80
2019-02-17T17:25:18.434Z,8.70
2019-02-17T17:27:46.950Z,8.80
2019-02-17T17:30:17.925Z,8.80
2019-02-17T17:32:46.606Z,8.80
2019-02-17T17:35:15.238Z,8.50
2019-02-17T17:37:43.778Z,8.30
2019-02-17T17:40:14.566Z,8.10
2019-02-17T17:42:43.243Z,7.60
2019-02-17T17:45:20.286Z,7.40
2019-02-17T17:47:48.825Z,7.50
2019-02-17T17:50:17.669Z,7.50
2019-02-17T17:52:46.207Z,7.20
2019-02-17T17:55:14.839Z,7.00
2019-02-17T17:57:43.378Z,7.20
2019-02-17T18:00:17.559Z,7.20
2019-02-17T18:02:46.170Z,7.40
2019-02-17T18:05:14.875Z,7.50
2019-02-17T18:07:43.413Z,7.50
2019-02-17T18:10:16.541Z,7.20
2019-02-17T18:12:45.151Z,7.20
2019-02-17T18:15:15.458Z,7.00
2019-02-17T18:17:53.525Z,6.60
2019-02-17T18:20:14.419Z,6.30
2019-02-17T18:22:43.025Z,6.10
2019-02-17T18:25:12.835Z,6.10
2019-02-17T18:27:41.515Z,6.40
2019-02-17T18:30:13.157Z,6.20
2019-02-17T18:32:41.617Z,6.10
2019-02-17T18:35:19.214Z,6.10
2019-02-17T18:37:40.445Z,6.20
2019-02-17T18:40:13.716Z,6.20
2019-02-17T18:42:42.821Z,6.10
2019-02-17T18:45:12.969Z,6.00
2019-02-17T18:47:41.579Z,5.70
2019-02-17T18:50:14.884Z,5.60
2019-02-17T18:52:43.454Z,5.50
2019-02-17T18:55:13.234Z,5.60
2019-02-17T18:57:49.594Z,5.60
2019-02-17T19:00:17.890Z,5.60
2019-02-17T19:02:46.462Z,5.50
2019-02-17T19:05:15.342Z,5.40
2019-02-17T19:07:43.918Z,5.30
2019-02-17T19:10:13.793Z,5.20
2019-02-17T19:12:42.355Z,5.30
2019-02-17T19:15:13.239Z,5.60
2019-02-17T19:17:41.880Z,5.50
2019-02-17T19:20:13.502Z,5.30
2019-02-17T19:22:42.060Z,4.90
2019-02-17T19:25:10.986Z,4.70
2019-02-17T19:27:39.630Z,4.50
2019-02-17T19:30:11.510Z,4.50
2019-02-17T19:32:40.078Z,4.60
2019-02-17T19:35:11.550Z,4.60
2019-02-17T19:37:40.126Z,5.00
2019-02-17T19:40:10.999Z,5.00
2019-02-17T19:42:39.668Z,5.10
2019-02-17T19:45:10.923Z,4.90
2019-02-17T19:47:39.496Z,4.80
2019-02-17T19:50:10.671Z,4.70
2019-02-17T19:52:39.234Z,4.60
2019-02-17T19:55:09.420Z,4.50
2019-02-17T19:57:38.131Z,4.70
2019-02-17T20:00:16.848Z,4.60
2019-02-17T20:02:53.324Z,4.70
2019-02-17T20:05:29.706Z,4.80
2019-02-17T20:07:58.198Z,4.50
2019-02-17T20:10:26.808Z,4.30
2019-02-17T20:12:55.342Z,4.30
2019-02-17T20:15:25.550Z,4.10
2019-02-17T20:17:54.150Z,4.00
2019-02-17T20:20:23.034Z,4.10
2019-02-17T20:22:51.592Z,4.10
2019-02-17T20:25:20.165Z,4.10
2019-02-17T20:27:48.983Z,3.90
2019-02-17T20:30:17.546Z,3.70
2019-02-17T20:32:46.013Z,3.60
2019-02-17T20:35:14.656Z,3.60
2019-02-17T20:37:43.188Z,3.60
2019-02-17T20:40:19.102Z,3.50
2019-02-17T20:42:47.641Z,3.70
2019-02-17T20:45:16.209Z,3.60
2019-02-17T20:47:44.741Z,3.70
2019-02-17T20:50:15.351Z,3.60
2019-02-17T20:52:43.963Z,3.60
2019-02-17T20:55:13.475Z,3.40
2019-02-17T20:57:42.010Z,3.40
2019-02-17T21:00:16.598Z,3.40
2019-02-17T21:02:45.138Z,3.30
2019-02-17T21:05:13.775Z,3.30
2019-02-17T21:07:42.312Z,3.60
2019-02-17T21:10:12.119Z,3.80
2019-02-17T21:12:40.727Z,3.80
2019-02-17T21:15:17.647Z,3.70
2019-02-17T21:17:46.268Z,3.60
2019-02-17T21:20:15.810Z,3.30
2019-02-17T21:22:44.553Z,3.30
2019-02-17T21:25:14.330Z,3.20
2019-02-17T21:27:43.069Z,3.30
2019-02-17T21:30:16.804Z,3.50
2019-02-17T21:32:45.506Z,3.50
2019-02-17T21:35:17.208Z,3.40
2019-02-17T21:37:45.842Z,3.20
2019-02-17T21:40:14.918Z,3.10
2019-02-17T21:42:43.483Z,3.10
2019-02-17T21:45:12.963Z,3.00
2019-02-17T21:47:41.645Z,3.00
2019-02-17T21:50:14.971Z,2.80
2019-02-17T21:52:43.686Z,3.00
2019-02-17T21:55:13.562Z,3.00
2019-02-17T21:57:42.538Z,3.00
2019-02-17T22:00:19.842Z,3.00
2019-02-17T22:02:48.786Z,3.10
2019-02-17T22:05:17.399Z,3.00
2019-02-17T22:07:46.047Z,2.70
2019-02-17T22:10:16.794Z,2.80
2019-02-17T22:12:45.430Z,3.00
2019-02-17T22:15:16.107Z,3.00
2019-02-17T22:17:44.675Z,2.90
2019-02-17T22:20:13.449Z,2.70
2019-02-17T22:22:42.018Z,2.60
2019-02-17T22:25:10.997Z,2.50
2019-02-17T22:27:39.570Z,2.30
2019-02-17T22:30:11.119Z,2.30
2019-02-17T22:32:39.725Z,2.50
2019-02-17T22:35:08.442Z,2.50
2019-02-17T22:37:36.970Z,2.60
2019-02-17T22:40:09.006Z,2.60
2019-02-17T22:42:37.614Z,2.40
2019-02-17T22:45:09.028Z,2.40
2019-02-17T22:47:37.629Z,2.20
2019-02-17T22:50:09.212Z,2.30
2019-02-17T22:52:37.746Z,2.20
2019-02-17T22:55:09.223Z,2.20
2019-02-17T22:57:37.764Z,2.20
2019-02-17T23:00:26.190Z,2.20
2019-02-17T23:02:54.842Z,2.30
2019-02-17T23:05:23.394Z,2.10
2019-02-17T23:07:51.938Z,2.00
2019-02-17T23:10:20.743Z,2.00
2019-02-17T23:12:49.279Z,1.90
2019-02-17T23:15:17.910Z,1.90
2019-02-17T23:17:46.377Z,1.90
2019-02-17T23:20:15.014Z,1.90
2019-02-17T23:22:43.554Z,2.00
2019-02-17T23:25:12.259Z,2.10
2019-02-17T23:27:40.794Z,1.90
2019-02-17T23:30:10.995Z,1.70
2019-02-17T23:32:39.537Z,1.60
2019-02-17T23:35:08.238Z,1.60
2019-02-17T23:37:36.850Z,1.50
2019-02-17T23:40:11.406Z,1.40
2019-02-17T23:42:40.007Z,1.30
2019-02-17T23:45:11.289Z,1.40
2019-02-17T23:47:39.826Z,1.50
2019-02-17T23:50:15.709Z,1.40
2019-02-17T23:52:44.173Z,1.40
2019-02-17T23:55:13.218Z,1.40
2019-02-17T23:57:42.178Z,1.50
